createdAt,value
2023-01-18T00:00:10.914Z,89.13
2023-01-18T00:01:12.874Z,89.52
2023-01-18T00:02:15.660Z,89.25
2023-01-18T00:03:18.286Z,89.33
2023-01-18T00:04:21.059Z,89.41
2023-01-18T00:05:23.095Z,89.86
2023-01-18T00:06:27.785Z,89.31
2023-01-18T00:07:31.396Z,89.71
2023-01-18T00:08:35.633Z,90.01
2023-01-18T00:09:37.481Z,89.83
2023-01-18T00:10:40.688Z,89.98
2023-01-18T00:11:42.459Z,90.01
2023-01-18T00:12:45.288Z,90.15
2023-01-18T00:13:47.703Z,90.15
2023-01-18T00:14:50.419Z,90.19
2023-01-18T00:15:52.249Z,90.16
2023-01-18T00:16:55.029Z,89.97
2023-01-18T00:17:56.843Z,90.21
2023-01-18T00:19:00.890Z,90.38
2023-01-18T00:20:02.678Z,90.43
2023-01-18T00:21:07.315Z,90.56
2023-01-18T00:22:10.533Z,90.57
2023-01-18T00:23:13.288Z,90.71
2023-01-18T00:24:15.163Z,90.56
2023-01-18T00:25:18.683Z,90.82
2023-01-18T00:26:20.544Z,90.58
2023-01-18T00:27:23.263Z,90.57
2023-01-18T00:28:25.132Z,90.87
2023-01-18T00:29:28.244Z,90.85
2023-01-18T00:30:30.134Z,90.67
2023-01-18T00:31:33.428Z,90.88
2023-01-18T00:32:35.233Z,90.91
2023-01-18T00:33:38.091Z,90.77
2023-01-18T00:34:40.324Z,90.94
2023-01-18T00:35:43.045Z,91.01
2023-01-18T00:36:45.738Z,91.06
2023-01-18T00:37:49.517Z,91.06
2023-01-18T00:38:53.895Z,90.93
2023-01-18T00:39:56.082Z,91.50
2023-01-18T00:40:59.272Z,91.32
2023-01-18T00:42:19.610Z,91.25
2023-01-18T00:43:39.512Z,91.26
2023-01-18T00:44:42.397Z,91.59
2023-01-18T00:45:44.234Z,91.71
2023-01-18T00:46:49.865Z,91.17
2023-01-18T00:47:51.743Z,91.77
2023-01-18T00:48:55.707Z,91.53
2023-01-18T00:49:57.881Z,91.50
2023-01-18T00:51:01.145Z,91.25
2023-01-18T00:52:02.988Z,91.85
2023-01-18T00:53:07.105Z,91.50
2023-01-18T00:54:08.913Z,91.41
2023-01-18T00:55:12.508Z,91.94
2023-01-18T00:56:16.311Z,91.48
2023-01-18T00:57:19.206Z,91.74
2023-01-18T00:58:21.030Z,91.78
2023-01-18T00:59:23.793Z,91.73
2023-01-18T01:00:27.158Z,91.90
2023-01-18T01:01:29.982Z,91.92
2023-01-18T01:02:31.911Z,91.90
2023-01-18T01:03:55.222Z,92.04
2023-01-18T01:05:15.754Z,92.12
2023-01-18T01:06:44.957Z,92.17
2023-01-18T01:07:48.547Z,92.29
2023-01-18T01:08:52.747Z,92.00
2023-01-18T01:09:56.308Z,92.46
2023-01-18T01:11:07.317Z,92.40
2023-01-18T01:12:27.565Z,92.37
2023-01-18T01:13:47.724Z,92.54
2023-01-18T01:15:08.426Z,92.59
2023-01-18T01:16:30.203Z,92.46
2023-01-18T01:17:52.537Z,92.87
2023-01-18T01:19:13.157Z,92.53
2023-01-18T01:20:33.967Z,92.89
2023-01-18T01:21:54.224Z,92.55
2023-01-18T01:23:14.645Z,93.05
2023-01-18T01:24:36.120Z,93.03
2023-01-18T01:25:56.813Z,92.93
2023-01-18T01:26:59.543Z,93.33
2023-01-18T01:28:01.265Z,93.13
2023-01-18T01:29:04.222Z,93.02
2023-01-18T01:30:07.563Z,92.96
2023-01-18T01:31:12.547Z,93.26
2023-01-18T01:32:14.501Z,92.70
2023-01-18T01:33:18.323Z,93.20
2023-01-18T01:34:20.460Z,92.97
2023-01-18T01:35:23.701Z,92.97
2023-01-18T01:36:27.857Z,93.29
2023-01-18T01:37:30.642Z,93.25
2023-01-18T01:38:33.280Z,92.98
2023-01-18T01:39:37.416Z,93.41
2023-01-18T01:40:39.198Z,93.32
2023-01-18T01:41:42.052Z,93.57
2023-01-18T01:42:43.822Z,93.47
2023-01-18T01:43:48.600Z,93.33
2023-01-18T01:44:52.494Z,93.71
2023-01-18T01:45:54.286Z,93.17
2023-01-18T01:46:58.821Z,93.75
2023-01-18T01:48:00.833Z,93.71
2023-01-18T01:49:07.637Z,93.27
2023-01-18T01:50:18.318Z,93.65
2023-01-18T01:51:21.494Z,93.81
2023-01-18T01:52:24.853Z,93.68
2023-01-18T01:53:27.976Z,93.92
2023-01-18T01:54:32.530Z,93.62
2023-01-18T01:55:38.848Z,93.84
2023-01-18T01:56:41.233Z,94.13
2023-01-18T01:57:45.822Z,93.78
2023-01-18T01:58:51.867Z,94.23
2023-01-18T01:59:58.384Z,94.37
2023-01-18T02:01:00.293Z,94.31
2023-01-18T02:02:03.712Z,93.86
2023-01-18T02:03:09.231Z,94.05
2023-01-18T02:04:12.070Z,93.89
2023-01-18T02:05:16.734Z,94.20
2023-01-18T02:06:24.716Z,93.93
2023-01-18T02:07:28.809Z,93.82
2023-01-18T02:08:30.586Z,94.26
2023-01-18T02:09:33.285Z,94.07
2023-01-18T02:10:36.514Z,93.93
2023-01-18T02:11:39.873Z,93.84
2023-01-18T02:12:44.257Z,93.89
2023-01-18T02:13:47.085Z,93.99
2023-01-18T02:14:49.056Z,94.57
2023-01-18T02:16:00.744Z,93.94
2023-01-18T02:17:16.090Z,94.30
2023-01-18T02:18:23.680Z,94.27
2023-01-18T02:19:46.783Z,94.11
2023-01-18T02:21:17.163Z,94.09
2023-01-18T02:22:32.326Z,94.53
2023-01-18T02:23:41.960Z,94.14
2023-01-18T02:24:58.986Z,94.46
2023-01-18T02:26:37.498Z,94.21
2023-01-18T02:27:43.776Z,94.22
2023-01-18T02:28:54.097Z,94.39
2023-01-18T02:30:06.110Z,94.53
2023-01-18T02:31:11.931Z,94.32
2023-01-18T02:32:20.880Z,94.42
2023-01-18T02:33:30.092Z,94.53
2023-01-18T02:34:40.120Z,94.58
2023-01-18T02:35:48.240Z,94.57
2023-01-18T02:36:56.759Z,94.26
2023-01-18T02:38:06.146Z,94.63
2023-01-18T02:39:23.428Z,94.48
2023-01-18T02:40:31.078Z,94.26
2023-01-18T02:41:51.224Z,94.79
2023-01-18T02:43:11.544Z,94.66
2023-01-18T02:44:34.703Z,94.61
2023-01-18T02:45:58.462Z,94.39
2023-01-18T02:47:01.919Z,94.38
2023-01-18T02:48:04.384Z,94.46
2023-01-18T02:49:09.296Z,94.77
2023-01-18T02:50:11.197Z,94.42
2023-01-18T02:51:13.943Z,94.54
2023-01-18T02:52:40.567Z,94.79
2023-01-18T02:53:45.687Z,94.58
2023-01-18T02:54:47.523Z,94.67
2023-01-18T02:55:54.665Z,94.40
2023-01-18T02:56:59.328Z,94.73
2023-01-18T02:58:05.026Z,94.33
2023-01-18T02:59:10.186Z,94.83
2023-01-18T03:00:17.498Z,94.66
2023-01-18T03:01:26.606Z,94.83
2023-01-18T03:02:29.981Z,94.70
2023-01-18T03:03:32.280Z,94.87
2023-01-18T03:04:36.988Z,94.87
2023-01-18T03:05:40.844Z,94.32
2023-01-18T03:06:45.993Z,94.58
2023-01-18T03:07:53.141Z,94.71
2023-01-18T03:08:56.963Z,94.77
2023-01-18T03:10:00.752Z,94.53
2023-01-18T03:11:05.758Z,94.59
2023-01-18T03:12:15.262Z,94.61
2023-01-18T03:13:24.201Z,94.40
2023-01-18T03:14:36.654Z,94.75
2023-01-18T03:15:47.665Z,94.78
2023-01-18T03:16:58.213Z,94.40
2023-01-18T03:18:05.025Z,94.59
2023-01-18T03:19:30.956Z,94.62
2023-01-18T03:20:35.877Z,94.20
2023-01-18T03:21:41.975Z,94.46
2023-01-18T03:23:07.383Z,94.59
2023-01-18T03:24:11.553Z,94.74
2023-01-18T03:25:16.425Z,94.66
2023-01-18T03:26:20.597Z,94.26
2023-01-18T03:27:41.108Z,94.79
2023-01-18T03:29:03.783Z,94.71
2023-01-18T03:30:25.049Z,94.43
2023-01-18T03:31:51.394Z,94.47
2023-01-18T03:33:11.813Z,94.75
2023-01-18T03:34:20.549Z,94.57
2023-01-18T03:35:26.727Z,94.42
2023-01-18T03:36:32.579Z,94.32
2023-01-18T03:37:37.803Z,94.61
2023-01-18T03:38:42.355Z,94.96
2023-01-18T03:39:46.817Z,94.84
2023-01-18T03:40:49.828Z,94.33
2023-01-18T03:41:57.267Z,94.62
2023-01-18T03:43:03.197Z,94.40
2023-01-18T03:44:09.578Z,94.32
2023-01-18T03:45:17.306Z,94.70
2023-01-18T03:46:19.994Z,94.30
2023-01-18T03:47:24.127Z,94.54
2023-01-18T03:48:25.906Z,94.58
2023-01-18T03:49:28.698Z,94.65
2023-01-18T03:50:42.263Z,94.53
2023-01-18T03:51:55.951Z,94.37
2023-01-18T03:52:59.699Z,94.20
2023-01-18T03:54:07.070Z,94.43
2023-01-18T03:55:12.198Z,94.06
2023-01-18T03:56:17.470Z,94.22
2023-01-18T03:57:25.001Z,94.24
2023-01-18T03:58:32.594Z,94.28
2023-01-18T03:59:35.811Z,93.99
2023-01-18T04:00:38.614Z,94.22
2023-01-18T04:01:40.599Z,94.14
2023-01-18T04:02:46.110Z,94.23
2023-01-18T04:03:47.899Z,94.29
2023-01-18T04:04:55.212Z,94.11
2023-01-18T04:05:58.629Z,94.18
2023-01-18T04:07:01.852Z,94.50
2023-01-18T04:08:03.593Z,94.28
2023-01-18T04:09:06.395Z,94.63
2023-01-18T04:10:09.622Z,94.48
2023-01-18T04:11:12.357Z,94.49
2023-01-18T04:12:14.231Z,94.56
2023-01-18T04:13:16.963Z,94.42
2023-01-18T04:14:18.778Z,94.24
2023-01-18T04:15:21.542Z,94.51
2023-01-18T04:16:23.340Z,94.47
2023-01-18T04:17:26.776Z,94.85
2023-01-18T04:18:29.929Z,95.15
2023-01-18T04:19:32.702Z,95.10
2023-01-18T04:20:34.494Z,94.95
2023-01-18T04:21:38.442Z,94.63
2023-01-18T04:22:40.298Z,95.18
2023-01-18T04:23:43.060Z,94.88
2023-01-18T04:24:44.924Z,95.01
2023-01-18T04:25:50.086Z,95.25
2023-01-18T04:26:52.058Z,94.94
2023-01-18T04:27:55.020Z,95.23
2023-01-18T04:28:56.817Z,94.97
2023-01-18T04:30:00.418Z,94.81
2023-01-18T04:31:02.470Z,95.20
2023-01-18T04:32:06.460Z,95.29
2023-01-18T04:33:08.287Z,95.19
2023-01-18T04:34:12.468Z,94.72
2023-01-18T04:35:14.261Z,94.98
2023-01-18T04:36:17.182Z,94.79
2023-01-18T04:37:19.986Z,95.12
2023-01-18T04:38:22.076Z,94.69
2023-01-18T04:39:24.905Z,94.55
2023-01-18T04:40:26.699Z,94.96
2023-01-18T04:41:29.764Z,94.92
2023-01-18T04:42:31.596Z,94.99
2023-01-18T04:43:34.481Z,95.29
2023-01-18T04:44:36.691Z,94.74
2023-01-18T04:45:39.589Z,95.24
2023-01-18T04:46:42.522Z,95.07
2023-01-18T04:47:45.013Z,95.33
2023-01-18T04:48:51.387Z,95.36
2023-01-18T04:49:54.552Z,95.29
2023-01-18T04:50:57.266Z,95.29
2023-01-18T04:51:58.989Z,95.48
2023-01-18T04:53:02.155Z,95.57
2023-01-18T04:54:04.155Z,95.39
2023-01-18T04:55:08.020Z,95.58
2023-01-18T04:56:10.848Z,95.45
2023-01-18T04:57:13.620Z,95.29
2023-01-18T04:58:15.435Z,95.53
2023-01-18T04:59:18.872Z,95.26
2023-01-18T05:00:22.331Z,95.07
2023-01-18T05:01:25.898Z,95.16
2023-01-18T05:02:27.820Z,95.54
2023-01-18T05:03:30.567Z,95.54
2023-01-18T05:04:32.424Z,95.06
2023-01-18T05:05:36.746Z,95.54
2023-01-18T05:06:38.489Z,95.64
2023-01-18T05:07:41.235Z,95.28
2023-01-18T05:08:43.094Z,95.69
2023-01-18T05:09:45.834Z,95.37
2023-01-18T05:10:47.624Z,95.50
2023-01-18T05:11:50.375Z,95.35
2023-01-18T05:12:52.129Z,95.46
2023-01-18T05:13:54.964Z,95.67
2023-01-18T05:14:56.892Z,95.30
2023-01-18T05:16:00.637Z,95.62
2023-01-18T05:17:02.460Z,95.01
2023-01-18T05:18:06.325Z,95.36
2023-01-18T05:19:08.204Z,95.32
2023-01-18T05:20:11.906Z,95.54
2023-01-18T05:21:15.568Z,95.75
2023-01-18T05:22:18.314Z,95.69
2023-01-18T05:23:20.182Z,95.66
2023-01-18T05:24:23.008Z,95.66
2023-01-18T05:25:24.886Z,95.74
2023-01-18T05:26:27.660Z,95.23
2023-01-18T05:27:29.629Z,95.52
2023-01-18T05:28:32.337Z,95.56
2023-01-18T05:29:34.284Z,95.45
2023-01-18T05:30:39.710Z,95.59
2023-01-18T05:31:42.599Z,95.89
2023-01-18T05:32:44.523Z,95.65
2023-01-18T05:33:47.423Z,95.64
2023-01-18T05:34:49.482Z,95.79
2023-01-18T05:35:53.371Z,95.54
2023-01-18T05:36:57.458Z,95.88
2023-01-18T05:37:59.239Z,95.98
2023-01-18T05:39:01.994Z,95.63
2023-01-18T05:40:04.524Z,95.90
2023-01-18T05:41:07.414Z,95.95
2023-01-18T05:42:09.218Z,95.71
2023-01-18T05:43:12.422Z,96.13
2023-01-18T05:44:15.131Z,95.77
2023-01-18T05:45:17.095Z,95.48
2023-01-18T05:46:20.212Z,95.92
2023-01-18T05:47:21.963Z,95.80
2023-01-18T05:48:24.975Z,95.98
2023-01-18T05:49:26.761Z,95.54
2023-01-18T05:50:29.599Z,95.27
2023-01-18T05:51:31.513Z,95.47
2023-01-18T05:52:35.922Z,95.47
2023-01-18T05:53:37.905Z,95.46
2023-01-18T05:54:40.647Z,95.93
2023-01-18T05:55:43.025Z,95.82
2023-01-18T05:56:45.825Z,95.95
2023-01-18T05:57:47.788Z,95.83
2023-01-18T05:58:50.935Z,95.46
2023-01-18T05:59:52.751Z,95.93
2023-01-18T06:00:55.785Z,95.61
2023-01-18T06:01:57.753Z,96.03
2023-01-18T06:03:00.969Z,96.00
2023-01-18T06:04:02.984Z,95.92
2023-01-18T06:05:06.486Z,95.39
2023-01-18T06:06:08.804Z,95.72
2023-01-18T06:07:11.657Z,95.81
2023-01-18T06:08:14.924Z,95.99
2023-01-18T06:09:17.620Z,95.53
2023-01-18T06:10:19.666Z,95.68
2023-01-18T06:11:22.510Z,95.62
2023-01-18T06:12:24.387Z,95.41
2023-01-18T06:13:28.853Z,95.47
2023-01-18T06:14:30.724Z,95.88
2023-01-18T06:15:33.552Z,95.80
2023-01-18T06:16:35.323Z,95.50
2023-01-18T06:17:38.418Z,95.59
2023-01-18T06:18:41.316Z,95.34
2023-01-18T06:19:44.238Z,95.32
2023-01-18T06:20:46.072Z,95.92
2023-01-18T06:21:48.832Z,95.48
2023-01-18T06:22:50.606Z,95.42
2023-01-18T06:23:55.102Z,95.55
2023-01-18T06:24:56.869Z,95.58
2023-01-18T06:25:59.874Z,95.75
2023-01-18T06:27:04.042Z,95.48
2023-01-18T06:28:07.184Z,95.46
2023-01-18T06:29:09.222Z,95.68
2023-01-18T06:30:12.743Z,95.48
2023-01-18T06:31:14.560Z,95.39
2023-01-18T06:32:17.349Z,95.47
2023-01-18T06:33:19.383Z,95.68
2023-01-18T06:34:22.152Z,96.02
2023-01-18T06:35:24.053Z,95.60
2023-01-18T06:36:29.155Z,95.64
2023-01-18T06:37:30.961Z,95.63
2023-01-18T06:38:33.924Z,95.50
2023-01-18T06:39:39.568Z,95.42
2023-01-18T06:40:41.418Z,95.82
2023-01-18T06:41:44.270Z,95.16
2023-01-18T06:42:48.321Z,95.71
2023-01-18T06:43:51.451Z,95.31
2023-01-18T06:44:53.193Z,95.77
2023-01-18T06:45:57.236Z,95.73
2023-01-18T06:46:59.077Z,95.93
2023-01-18T06:48:01.906Z,95.99
2023-01-18T06:49:04.285Z,95.72
2023-01-18T06:50:08.163Z,96.00
2023-01-18T06:51:09.939Z,95.83
2023-01-18T06:52:12.701Z,95.88
2023-01-18T06:53:14.467Z,96.06
2023-01-18T06:54:17.250Z,95.68
2023-01-18T06:55:21.128Z,95.97
2023-01-18T06:56:23.842Z,96.02
2023-01-18T06:57:25.612Z,95.95
2023-01-18T06:58:30.870Z,96.16
2023-01-18T06:59:32.809Z,95.77
2023-01-18T07:00:35.663Z,96.08
2023-01-18T07:01:37.888Z,95.81
2023-01-18T07:02:40.701Z,95.66
2023-01-18T07:03:43.604Z,95.71
2023-01-18T07:04:45.874Z,95.92
2023-01-18T07:05:48.652Z,95.71
2023-01-18T07:06:50.430Z,95.81
2023-01-18T07:07:53.241Z,95.93
2023-01-18T07:08:55.038Z,95.40
2023-01-18T07:09:58.031Z,95.74
2023-01-18T07:11:05.511Z,95.91
2023-01-18T07:12:07.479Z,95.63
2023-01-18T07:13:10.229Z,95.70
2023-01-18T07:14:12.650Z,95.70
2023-01-18T07:15:22.014Z,95.20
2023-01-18T07:16:25.219Z,95.04
2023-01-18T07:17:27.205Z,95.55
2023-01-18T07:18:31.084Z,95.25
2023-01-18T07:19:32.826Z,95.01
2023-01-18T07:20:36.007Z,95.17
2023-01-18T07:21:37.817Z,95.19
2023-01-18T07:22:40.883Z,95.18
2023-01-18T07:23:43.102Z,95.38
2023-01-18T07:24:46.252Z,95.25
2023-01-18T07:25:48.044Z,94.77
2023-01-18T07:26:52.193Z,95.37
2023-01-18T07:27:56.861Z,95.30
2023-01-18T07:28:59.998Z,95.13
2023-01-18T07:30:01.968Z,95.17
2023-01-18T07:31:06.387Z,95.35
2023-01-18T07:32:08.186Z,95.21
2023-01-18T07:33:11.475Z,95.37
2023-01-18T07:34:13.384Z,95.72
2023-01-18T07:35:17.142Z,95.49
2023-01-18T07:36:20.610Z,95.30
2023-01-18T07:37:23.324Z,95.46
2023-01-18T07:38:25.424Z,95.10
2023-01-18T07:39:28.808Z,95.19
2023-01-18T07:40:33.301Z,95.35
2023-01-18T07:41:36.504Z,95.11
2023-01-18T07:42:59.877Z,95.33
2023-01-18T07:44:03.236Z,95.46
2023-01-18T07:45:08.650Z,95.14
2023-01-18T07:46:13.864Z,95.30
2023-01-18T07:47:16.059Z,95.19
2023-01-18T07:48:18.880Z,95.59
2023-01-18T07:49:21.636Z,95.60
2023-01-18T07:50:23.564Z,95.37
2023-01-18T07:51:26.324Z,95.57
2023-01-18T07:52:28.332Z,95.67
2023-01-18T07:53:33.057Z,95.74
2023-01-18T07:54:35.833Z,95.31
2023-01-18T07:55:38.830Z,95.62
2023-01-18T07:56:41.701Z,95.66
2023-01-18T07:57:43.937Z,95.59
2023-01-18T07:58:48.210Z,95.88
2023-01-18T07:59:50.035Z,95.56
2023-01-18T08:00:52.981Z,95.61
2023-01-18T08:01:56.521Z,95.66
2023-01-18T08:02:59.338Z,95.63
2023-01-18T08:04:02.185Z,95.98
2023-01-18T08:05:04.911Z,95.64
2023-01-18T08:06:10.084Z,95.81
2023-01-18T08:07:11.925Z,95.70
2023-01-18T08:08:16.151Z,95.99
2023-01-18T08:09:18.998Z,95.92
2023-01-18T08:10:21.667Z,96.16
2023-01-18T08:11:24.451Z,95.89
2023-01-18T08:12:26.256Z,95.69
2023-01-18T08:13:29.628Z,95.75
2023-01-18T08:14:32.732Z,95.76
2023-01-18T08:15:35.788Z,95.92
2023-01-18T08:16:38.552Z,95.83
2023-01-18T08:17:40.517Z,95.62
2023-01-18T08:18:45.293Z,95.55
2023-01-18T08:19:48.132Z,95.44
2023-01-18T08:20:50.909Z,95.44
2023-01-18T08:21:53.973Z,95.35
2023-01-18T08:22:57.054Z,95.38
2023-01-18T08:24:00.081Z,95.51
2023-01-18T08:25:02.076Z,95.36
2023-01-18T08:26:05.023Z,95.33
2023-01-18T08:27:07.779Z,95.36
2023-01-18T08:28:11.545Z,95.37
2023-01-18T08:29:14.233Z,95.90
2023-01-18T08:30:19.066Z,95.48
2023-01-18T08:31:22.763Z,95.64
2023-01-18T08:32:24.917Z,95.91
2023-01-18T08:33:27.694Z,95.97
2023-01-18T08:34:30.659Z,95.78
2023-01-18T08:35:34.680Z,95.63
2023-01-18T08:36:37.432Z,95.66
2023-01-18T08:37:39.299Z,95.88
2023-01-18T08:38:42.090Z,95.90
2023-01-18T08:39:45.089Z,95.75
2023-01-18T08:40:48.240Z,95.75
2023-01-18T08:41:51.002Z,95.78
2023-01-18T08:42:56.845Z,95.56
2023-01-18T08:44:00.647Z,95.49
2023-01-18T08:45:02.424Z,95.26
2023-01-18T08:46:06.899Z,95.33
2023-01-18T08:47:09.027Z,95.29
2023-01-18T08:48:12.016Z,95.51
2023-01-18T08:49:15.154Z,95.58
2023-01-18T08:50:18.479Z,95.45
2023-01-18T08:51:22.849Z,95.53
2023-01-18T08:52:24.653Z,95.63
2023-01-18T08:53:27.440Z,95.58
2023-01-18T08:54:30.342Z,95.54
2023-01-18T08:55:34.075Z,95.36
2023-01-18T08:56:36.887Z,95.31
2023-01-18T08:57:38.650Z,95.25
2023-01-18T08:58:41.416Z,95.05
2023-01-18T08:59:44.259Z,94.90
2023-01-18T09:00:50.470Z,94.81
2023-01-18T09:01:54.805Z,95.06
2023-01-18T09:02:57.669Z,95.14
2023-01-18T09:04:00.842Z,95.02
2023-01-18T09:05:03.127Z,94.95
2023-01-18T09:06:11.720Z,94.78
2023-01-18T09:07:15.637Z,94.60
2023-01-18T09:08:17.878Z,94.69
2023-01-18T09:09:20.710Z,94.47
2023-01-18T09:10:23.135Z,94.73
2023-01-18T09:11:26.143Z,94.65
2023-01-18T09:12:29.322Z,94.48
2023-01-18T09:13:32.548Z,94.88
2023-01-18T09:14:35.324Z,95.19
2023-01-18T09:15:37.868Z,95.48
2023-01-18T09:16:40.689Z,95.29
2023-01-18T09:17:43.887Z,95.49
2023-01-18T09:18:47.066Z,95.31
2023-01-18T09:19:49.819Z,95.12
2023-01-18T09:20:54.249Z,95.53
2023-01-18T09:21:57.093Z,95.12
2023-01-18T09:23:00.154Z,95.04
2023-01-18T09:24:03.136Z,94.97
2023-01-18T09:25:06.831Z,95.12
2023-01-18T09:26:13.019Z,95.47
2023-01-18T09:27:15.909Z,95.59
2023-01-18T09:28:18.711Z,95.52
2023-01-18T09:29:20.738Z,95.57
2023-01-18T09:30:23.503Z,95.72
2023-01-18T09:31:28.159Z,95.45
2023-01-18T09:32:31.243Z,95.52
2023-01-18T09:33:38.023Z,95.38
2023-01-18T09:34:40.950Z,95.69
2023-01-18T09:35:43.743Z,95.51
2023-01-18T09:36:47.071Z,95.65
2023-01-18T09:37:50.184Z,95.93
2023-01-18T09:38:52.422Z,96.23
2023-01-18T09:39:55.215Z,95.87
2023-01-18T09:40:57.455Z,96.21
2023-01-18T09:42:02.818Z,96.22
2023-01-18T09:43:16.345Z,96.54
2023-01-18T09:44:23.257Z,96.34
2023-01-18T09:45:30.283Z,96.73
2023-01-18T09:46:36.366Z,96.39
2023-01-18T09:47:44.645Z,96.43
2023-01-18T09:48:53.376Z,97.12
2023-01-18T09:49:57.400Z,96.85
2023-01-18T09:51:02.368Z,96.87
2023-01-18T09:52:19.825Z,96.68
2023-01-18T09:53:31.429Z,96.87
2023-01-18T09:54:40.152Z,96.92
2023-01-18T09:55:49.759Z,96.62
2023-01-18T09:56:58.255Z,96.79
2023-01-18T09:58:13.431Z,96.68
2023-01-18T09:59:22.470Z,96.54
2023-01-18T10:00:28.978Z,96.88
2023-01-18T10:01:33.597Z,97.02
2023-01-18T10:02:39.233Z,96.81
2023-01-18T10:03:50.501Z,96.66
2023-01-18T10:04:56.709Z,96.79
2023-01-18T10:06:08.848Z,96.51
2023-01-18T10:07:14.996Z,96.68
2023-01-18T10:08:22.244Z,97.12
2023-01-18T10:09:28.466Z,96.92
2023-01-18T10:10:39.402Z,96.61
2023-01-18T10:11:48.675Z,97.00
2023-01-18T10:12:55.815Z,96.90
2023-01-18T10:14:05.213Z,96.93
2023-01-18T10:15:13.710Z,97.15
2023-01-18T10:16:16.569Z,96.73
2023-01-18T10:17:22.940Z,97.13
2023-01-18T10:18:26.318Z,97.13
2023-01-18T10:19:31.854Z,97.12
2023-01-18T10:20:38.401Z,97.33
2023-01-18T10:21:47.688Z,97.05
2023-01-18T10:22:54.053Z,97.32
2023-01-18T10:24:11.151Z,97.26
2023-01-18T10:25:17.008Z,97.33
2023-01-18T10:26:21.476Z,97.02
2023-01-18T10:27:38.419Z,97.02
2023-01-18T10:28:46.800Z,97.11
2023-01-18T10:29:58.140Z,97.01
2023-01-18T10:31:23.520Z,97.16
2023-01-18T10:32:26.388Z,97.00
2023-01-18T10:33:32.175Z,97.15
2023-01-18T10:34:39.315Z,96.89
2023-01-18T10:35:47.909Z,97.24
2023-01-18T10:36:51.177Z,97.00
2023-01-18T10:37:56.488Z,96.77
2023-01-18T10:39:02.289Z,97.54
2023-01-18T10:40:07.680Z,97.56
2023-01-18T10:41:18.695Z,96.86
2023-01-18T10:42:24.024Z,97.55
2023-01-18T10:43:28.011Z,97.35
2023-01-18T10:44:31.580Z,97.08
2023-01-18T10:45:35.857Z,97.13
2023-01-18T10:46:38.816Z,97.17
2023-01-18T10:47:40.594Z,97.15
2023-01-18T10:48:46.190Z,97.13
2023-01-18T10:49:51.581Z,96.74
2023-01-18T10:50:56.397Z,96.62
2023-01-18T10:52:17.579Z,96.56
2023-01-18T10:53:21.522Z,96.89
2023-01-18T10:54:27.335Z,97.22
2023-01-18T10:55:29.199Z,96.76
2023-01-18T10:56:32.026Z,97.00
2023-01-18T10:57:36.178Z,96.75
2023-01-18T10:58:43.147Z,96.93
2023-01-18T10:59:44.918Z,97.24
2023-01-18T11:00:54.221Z,97.27
2023-01-18T11:02:23.693Z,97.35
2023-01-18T11:03:28.329Z,97.37
2023-01-18T11:04:31.594Z,97.04
2023-01-18T11:05:38.300Z,97.39
2023-01-18T11:06:51.685Z,97.40
2023-01-18T11:08:15.105Z,97.49
2023-01-18T11:09:39.677Z,97.83
2023-01-18T11:10:42.559Z,97.73
2023-01-18T11:12:17.736Z,97.53
2023-01-18T11:13:28.414Z,97.53
2023-01-18T11:14:32.370Z,97.57
2023-01-18T11:15:34.171Z,97.60
2023-01-18T11:16:42.361Z,98.20
2023-01-18T11:17:45.965Z,98.12
2023-01-18T11:19:01.206Z,97.92
2023-01-18T11:20:07.205Z,97.92
2023-01-18T11:21:12.363Z,98.45
2023-01-18T11:22:17.936Z,97.92
2023-01-18T11:23:22.931Z,98.21
2023-01-18T11:24:29.427Z,98.18
2023-01-18T11:25:37.388Z,98.50
2023-01-18T11:26:51.643Z,98.23
2023-01-18T11:28:01.499Z,98.24
2023-01-18T11:29:06.976Z,97.90
2023-01-18T11:30:21.096Z,98.10
2023-01-18T11:31:25.660Z,98.10
2023-01-18T11:32:30.480Z,98.17
2023-01-18T11:33:32.603Z,98.72
2023-01-18T11:34:37.140Z,98.32
2023-01-18T11:35:39.115Z,98.52
2023-01-18T11:36:44.899Z,98.01
2023-01-18T11:37:46.745Z,98.38
2023-01-18T11:38:49.535Z,98.07
2023-01-18T11:39:52.388Z,98.60
2023-01-18T11:41:03.337Z,98.09
2023-01-18T11:42:17.813Z,98.16
2023-01-18T11:43:23.572Z,98.54
2023-01-18T11:44:27.903Z,98.07
2023-01-18T11:45:32.920Z,98.16
2023-01-18T11:46:41.548Z,97.55
2023-01-18T11:47:54.188Z,97.55
2023-01-18T11:49:02.656Z,97.33
2023-01-18T11:50:20.946Z,96.86
2023-01-18T11:51:26.990Z,96.58
2023-01-18T11:52:43.117Z,96.71
2023-01-18T11:53:54.199Z,96.87
2023-01-18T11:54:59.692Z,96.95
2023-01-18T11:56:06.611Z,97.18
2023-01-18T11:57:12.815Z,97.42
2023-01-18T11:58:24.078Z,97.21
2023-01-18T11:59:29.516Z,97.05
2023-01-18T12:00:43.884Z,97.31
2023-01-18T12:02:01.387Z,97.52
2023-01-18T12:03:24.144Z,97.57
2023-01-18T12:04:37.426Z,97.73
2023-01-18T12:05:46.056Z,97.57
2023-01-18T12:06:55.467Z,97.55
2023-01-18T12:08:19.046Z,97.72
2023-01-18T12:09:30.080Z,97.65
2023-01-18T12:10:42.422Z,97.71
2023-01-18T12:11:54.163Z,97.52
2023-01-18T12:13:10.122Z,97.68
2023-01-18T12:14:24.749Z,97.76
2023-01-18T12:15:42.864Z,98.00
2023-01-18T12:17:06.659Z,97.82
2023-01-18T12:18:27.429Z,98.25
2023-01-18T12:19:47.257Z,98.08
2023-01-18T12:20:58.274Z,97.60
2023-01-18T12:22:25.249Z,98.05
2023-01-18T12:23:55.874Z,97.92
2023-01-18T12:25:09.772Z,98.23
2023-01-18T12:26:20.367Z,98.41
2023-01-18T12:27:31.026Z,98.14
2023-01-18T12:28:41.911Z,98.32
2023-01-18T12:30:23.735Z,98.22
2023-01-18T12:31:39.853Z,97.80
2023-01-18T12:33:02.044Z,97.82
2023-01-18T12:34:12.239Z,97.96
2023-01-18T12:35:26.185Z,97.84
2023-01-18T12:36:37.308Z,98.19
2023-01-18T12:37:46.576Z,97.89
2023-01-18T12:38:52.724Z,98.27
2023-01-18T12:40:07.863Z,97.92
2023-01-18T12:41:33.782Z,98.17
2023-01-18T12:42:45.737Z,98.09
2023-01-18T12:43:58.909Z,97.77
2023-01-18T12:45:11.025Z,98.18
2023-01-18T12:46:16.887Z,97.68
2023-01-18T12:47:35.020Z,98.29
2023-01-18T12:48:44.447Z,98.25
2023-01-18T12:49:48.415Z,98.45
2023-01-18T12:50:52.103Z,98.10
2023-01-18T12:52:06.175Z,98.32
2023-01-18T12:53:23.844Z,98.36
2023-01-18T12:54:31.440Z,98.38
2023-01-18T12:55:36.370Z,98.63
2023-01-18T12:56:41.110Z,98.46
2023-01-18T12:57:45.134Z,98.57
2023-01-18T12:58:52.644Z,98.16
2023-01-18T12:59:56.950Z,98.61
2023-01-18T13:01:05.976Z,98.65
2023-01-18T13:02:23.090Z,98.21
2023-01-18T13:03:31.110Z,98.50
2023-01-18T13:04:37.491Z,98.86
2023-01-18T13:05:50.932Z,98.34
2023-01-18T13:06:57.877Z,98.76
2023-01-18T13:08:06.377Z,98.83
2023-01-18T13:09:13.517Z,98.42
2023-01-18T13:10:19.439Z,98.75
2023-01-18T13:11:24.983Z,98.72
2023-01-18T13:12:28.088Z,98.39
2023-01-18T13:13:31.383Z,98.19
2023-01-18T13:14:40.084Z,98.37
2023-01-18T13:15:47.036Z,98.37
2023-01-18T13:16:57.101Z,98.16
2023-01-18T13:18:06.450Z,98.40
2023-01-18T13:19:11.801Z,98.37
2023-01-18T13:20:18.103Z,98.23
2023-01-18T13:21:26.323Z,98.20
2023-01-18T13:22:34.943Z,98.20
2023-01-18T13:23:45.955Z,98.54
2023-01-18T13:25:18.477Z,98.38
2023-01-18T13:26:26.462Z,97.90
2023-01-18T13:27:28.432Z,98.03
2023-01-18T13:28:31.208Z,98.34
2023-01-18T13:29:33.583Z,98.16
2023-01-18T13:30:53.080Z,97.97
2023-01-18T13:31:56.029Z,98.08
2023-01-18T13:32:59.220Z,98.22
2023-01-18T13:34:01.047Z,97.96
2023-01-18T13:35:19.936Z,97.45
2023-01-18T13:36:23.554Z,98.14
2023-01-18T13:37:41.726Z,97.58
2023-01-18T13:38:50.599Z,97.67
2023-01-18T13:39:53.547Z,97.76
2023-01-18T13:40:57.058Z,97.68
2023-01-18T13:42:26.951Z,98.16
2023-01-18T13:44:03.614Z,98.26
2023-01-18T13:45:18.011Z,98.36
2023-01-18T13:46:22.852Z,98.65
2023-01-18T13:47:52.363Z,98.25
2023-01-18T13:48:57.257Z,98.22
2023-01-18T13:49:59.994Z,98.37
2023-01-18T13:51:02.792Z,97.95
2023-01-18T13:52:30.144Z,97.98
2023-01-18T13:53:49.366Z,98.20
2023-01-18T13:55:25.735Z,98.04
2023-01-18T13:56:29.329Z,97.73
2023-01-18T13:57:35.408Z,97.99
2023-01-18T13:58:38.476Z,98.08
2023-01-18T13:59:46.589Z,98.43
2023-01-18T14:00:48.579Z,98.26
2023-01-18T14:01:52.648Z,98.18
2023-01-18T14:03:03.704Z,98.37
2023-01-18T14:04:30.092Z,98.48
2023-01-18T14:05:36.877Z,98.40
2023-01-18T14:06:44.021Z,98.34
2023-01-18T14:07:49.258Z,98.46
2023-01-18T14:08:53.975Z,98.93
2023-01-18T14:10:03.341Z,98.85
2023-01-18T14:11:08.188Z,98.82
2023-01-18T14:12:12.907Z,98.92
2023-01-18T14:13:17.848Z,98.66